sensor_id;sensor_type;location;lat;lon;timestamp;pressure;altitude;pressure_sealevel;temperature;humidity
47556;BME280;33291;46.222;26.460;2022-08-18T00:01:40;96169.84;;;17.15;100.00
47556;BME280;33291;46.222;26.460;2022-08-18T00:04:08;96171.53;;;17.22;100.00
47556;BME280;33291;46.222;26.460;2022-08-18T00:06:33;96172.53;;;17.21;100.00
47556;BME280;33291;46.222;26.460;2022-08-18T00:09:02;96169.72;;;17.23;100.00
47556;BME280;33291;46.222;26.460;2022-08-18T00:11:31;96159.50;;;17.13;100.00
47556;BME280;33291;46.222;26.460;2022-08-18T00:13:57;96159.09;;;17.10;100.00
47556;BME280;33291;46.222;26.460;2022-08-18T00:16:22;96173.06;;;17.10;100.00
47556;BME280;33291;46.222;26.460;2022-08-18T00:18:48;96161.03;;;17.01;100.00
47556;BME280;33291;46.222;26.460;2022-08-18T00:21:13;96176.88;;;17.08;100.00
47556;BME280;33291;46.222;26.460;2022-08-18T00:23:39;96174.19;;;17.01;100.00
47556;BME280;33291;46.222;26.460;2022-08-18T00:26:05;96169.72;;;17.01;100.00
47556;BME280;33291;46.222;26.460;2022-08-18T00:28:30;96174.41;;;17.06;100.00
47556;BME280;33291;46.222;26.460;2022-08-18T00:30:55;96177.06;;;17.06;100.00
47556;BME280;33291;46.222;26.460;2022-08-18T00:33:21;96179.88;;;17.04;100.00
47556;BME280;33291;46.222;26.460;2022-08-18T00:35:47;96167.66;;;16.97;100.00
47556;BME280;33291;46.222;26.460;2022-08-18T00:38:13;96179.06;;;17.04;100.00
47556;BME280;33291;46.222;26.460;2022-08-18T00:40:47;96183.34;;;17.05;100.00
47556;BME280;33291;46.222;26.460;2022-08-18T00:43:21;96180.84;;;17.03;100.00
47556;BME280;33291;46.222;26.460;2022-08-18T00:45:48;96173.09;;;16.95;100.00
47556;BME280;33291;46.222;26.460;2022-08-18T00:48:14;96181.81;;;16.96;100.00
47556;BME280;33291;46.222;26.460;2022-08-18T00:53:14;96176.66;;;16.87;100.00
47556;BME280;33291;46.222;26.460;2022-08-18T00:55:44;96191.28;;;16.90;100.00
47556;BME280;33291;46.222;26.460;2022-08-18T00:58:17;96189.00;;;16.87;100.00
47556;BME280;33291;46.222;26.460;2022-08-18T01:00:43;96178.66;;;16.85;100.00
47556;BME280;33291;46.222;26.460;2022-08-18T01:03:13;96179.63;;;16.84;100.00
47556;BME280;33291;46.222;26.460;2022-08-18T01:06:08;96181.28;;;16.85;100.00
47556;BME280;33291;46.222;26.460;2022-08-18T01:08:36;96185.28;;;16.81;100.00
47556;BME280;33291;46.222;26.460;2022-08-18T01:11:02;96177.56;;;16.80;100.00
47556;BME280;33291;46.222;26.460;2022-08-18T01:13:30;96166.63;;;16.76;100.00
47556;BME280;33291;46.222;26.460;2022-08-18T01:15:57;96178.38;;;16.80;100.00
47556;BME280;33291;46.222;26.460;2022-08-18T01:18:23;96167.22;;;16.78;100.00
47556;BME280;33291;46.222;26.460;2022-08-18T01:21:14;96171.50;;;16.79;100.00
47556;BME280;33291;46.222;26.460;2022-08-18T01:24:03;96187.72;;;16.83;100.00
47556;BME280;33291;46.222;26.460;2022-08-18T01:26:29;96182.41;;;16.76;100.00
47556;BME280;33291;46.222;26.460;2022-08-18T01:29:04;96182.81;;;16.80;100.00
47556;BME280;33291;46.222;26.460;2022-08-18T01:31:40;96185.66;;;16.78;100.00
47556;BME280;33291;46.222;26.460;2022-08-18T01:34:09;96183.56;;;16.74;100.00
47556;BME280;33291;46.222;26.460;2022-08-18T01:36:37;96195.00;;;16.81;100.00
47556;BME280;33291;46.222;26.460;2022-08-18T01:39:10;96188.28;;;16.78;100.00
47556;BME280;33291;46.222;26.460;2022-08-18T01:41:37;96192.78;;;16.84;100.00
47556;BME280;33291;46.222;26.460;2022-08-18T01:44:04;96192.59;;;16.86;100.00
47556;BME280;33291;46.222;26.460;2022-08-18T01:46:32;96199.69;;;16.85;100.00
47556;BME280;33291;46.222;26.460;2022-08-18T01:48:59;96192.34;;;16.81;100.00
47556;BME280;33291;46.222;26.460;2022-08-18T01:51:27;96194.16;;;16.80;100.00
47556;BME280;33291;46.222;26.460;2022-08-18T01:53:53;96199.69;;;16.85;100.00
47556;BME280;33291;46.222;26.460;2022-08-18T01:56:19;96193.59;;;16.85;100.00
47556;BME280;33291;46.222;26.460;2022-08-18T01:58:44;96200.50;;;16.86;100.00
47556;BME280;33291;46.222;26.460;2022-08-18T02:01:15;96193.44;;;16.86;100.00
47556;BME280;33291;46.222;26.460;2022-08-18T02:03:45;96200.69;;;16.84;100.00
47556;BME280;33291;46.222;26.460;2022-08-18T02:06:13;96195.59;;;16.83;100.00
47556;BME280;33291;46.222;26.460;2022-08-18T02:08:39;96196.41;;;16.83;100.00
47556;BME280;33291;46.222;26.460;2022-08-18T02:11:06;96193.78;;;16.83;100.00
47556;BME280;33291;46.222;26.460;2022-08-18T02:13:32;96196.59;;;16.82;100.00
47556;BME280;33291;46.222;26.460;2022-08-18T02:15:58;96189.63;;;16.74;100.00
47556;BME280;33291;46.222;26.460;2022-08-18T02:18:27;96196.16;;;16.78;100.00
47556;BME280;33291;46.222;26.460;2022-08-18T02:20:54;96198.78;;;16.78;100.00
47556;BME280;33291;46.222;26.460;2022-08-18T02:23:20;96200.25;;;16.81;100.00
47556;BME280;33291;46.222;26.460;2022-08-18T02:25:45;96207.13;;;16.82;100.00
47556;BME280;33291;46.222;26.460;2022-08-18T02:28:11;96206.75;;;16.85;100.00
47556;BME280;33291;46.222;26.460;2022-08-18T02:30:37;96205.94;;;16.84;100.00
47556;BME280;33291;46.222;26.460;2022-08-18T02:33:06;96200.25;;;16.81;100.00
47556;BME280;33291;46.222;26.460;2022-08-18T02:35:33;96209.56;;;16.83;100.00
47556;BME280;33291;46.222;26.460;2022-08-18T02:38:00;96212.00;;;16.85;100.00
47556;BME280;33291;46.222;26.460;2022-08-18T02:40:26;96212.84;;;16.85;100.00
47556;BME280;33291;46.222;26.460;2022-08-18T02:42:53;96203.06;;;16.79;100.00
47556;BME280;33291;46.222;26.460;2022-08-18T02:45:20;96217.28;;;16.85;100.00
47556;BME280;33291;46.222;26.460;2022-08-18T02:47:51;96215.31;;;16.87;100.00
47556;BME280;33291;46.222;26.460;2022-08-18T02:50:17;96214.13;;;16.90;100.00
47556;BME280;33291;46.222;26.460;2022-08-18T02:52:43;96211.28;;;16.91;100.00
47556;BME280;33291;46.222;26.460;2022-08-18T02:55:09;96211.28;;;16.91;100.00
47556;BME280;33291;46.222;26.460;2022-08-18T02:57:35;96212.50;;;16.89;100.00
47556;BME280;33291;46.222;26.460;2022-08-18T03:00:01;96221.44;;;16.94;100.00
47556;BME280;33291;46.222;26.460;2022-08-18T03:02:26;96220.81;;;16.92;100.00
47556;BME280;33291;46.222;26.460;2022-08-18T03:04:52;96225.28;;;16.92;100.00
47556;BME280;33291;46.222;26.460;2022-08-18T03:07:17;96220.81;;;16.92;100.00
47556;BME280;33291;46.222;26.460;2022-08-18T03:09:43;96221.00;;;16.91;100.00
47556;BME280;33291;46.222;26.460;2022-08-18T03:12:09;96224.16;;;16.86;100.00
47556;BME280;33291;46.222;26.460;2022-08-18T03:14:36;96232.72;;;16.88;100.00
47556;BME280;33291;46.222;26.460;2022-08-18T03:17:07;96231.91;;;16.87;100.00
47556;BME280;33291;46.222;26.460;2022-08-18T03:19:33;96231.25;;;16.85;100.00
47556;BME280;33291;46.222;26.460;2022-08-18T03:21:58;96220.91;;;16.84;100.00
47556;BME280;33291;46.222;26.460;2022-08-18T03:24:26;96225.34;;;16.83;100.00
47556;BME280;33291;46.222;26.460;2022-08-18T03:26:52;96216.47;;;16.84;100.00
47556;BME280;33291;46.222;26.460;2022-08-18T03:29:19;96193.38;;;16.65;100.00
47556;BME280;33291;46.222;26.460;2022-08-18T03:31:45;96227.25;;;16.90;100.00
47556;BME280;33291;46.222;26.460;2022-08-18T03:34:13;96228.91;;;16.91;100.00
47556;BME280;33291;46.222;26.460;2022-08-18T03:36:40;96221.81;;;16.91;100.00
47556;BME280;33291;46.222;26.460;2022-08-18T03:39:10;96217.56;;;16.90;100.00
47556;BME280;33291;46.222;26.460;2022-08-18T03:41:41;96220.81;;;16.92;100.00
47556;BME280;33291;46.222;26.460;2022-08-18T03:44:08;96213.22;;;16.82;100.00
47556;BME280;33291;46.222;26.460;2022-08-18T03:46:34;96212.69;;;16.72;100.00
47556;BME280;33291;46.222;26.460;2022-08-18T03:48:59;96225.47;;;16.75;100.00
47556;BME280;33291;46.222;26.460;2022-08-18T03:51:28;96230.34;;;16.78;100.00
47556;BME280;33291;46.222;26.460;2022-08-18T03:53:58;96227.34;;;16.81;100.00
47556;BME280;33291;46.222;26.460;2022-08-18T03:56:27;96229.00;;;16.82;100.00
47556;BME280;33291;46.222;26.460;2022-08-18T03:58:56;96222.09;;;16.81;100.00
47556;BME280;33291;46.222;26.460;2022-08-18T04:01:26;96226.19;;;16.84;100.00
47556;BME280;33291;46.222;26.460;2022-08-18T04:03:55;96209.31;;;16.78;100.00
47556;BME280;33291;46.222;26.460;2022-08-18T04:06:25;96188.19;;;16.72;100.00
47556;BME280;33291;46.222;26.460;2022-08-18T04:08:53;96217.75;;;16.89;100.00
47556;BME280;33291;46.222;26.460;2022-08-18T04:11:19;96224.25;;;16.93;100.00
47556;BME280;33291;46.222;26.460;2022-08-18T04:13:44;96224.91;;;16.95;100.00
47556;BME280;33291;46.222;26.460;2022-08-18T04:16:10;96221.91;;;16.98;100.00
47556;BME280;33291;46.222;26.460;2022-08-18T04:18:36;96195.78;;;16.81;100.00
47556;BME280;33291;46.222;26.460;2022-08-18T04:21:06;96219.72;;;17.01;100.00
47556;BME280;33291;46.222;26.460;2022-08-18T04:23:37;96212.00;;;17.00;100.00
47556;BME280;33291;46.222;26.460;2022-08-18T04:26:04;96214.06;;;17.04;100.00
47556;BME280;33291;46.222;26.460;2022-08-18T04:28:30;96219.25;;;17.13;100.00
47556;BME280;33291;46.222;26.460;2022-08-18T04:30:56;96211.53;;;17.11;100.00
47556;BME280;33291;46.222;26.460;2022-08-18T04:33:25;96209.50;;;17.13;100.00
47556;BME280;33291;46.222;26.460;2022-08-18T04:35:51;96210.78;;;17.17;100.00
47556;BME280;33291;46.222;26.460;2022-08-18T04:38:16;96217.28;;;17.21;100.00
47556;BME280;33291;46.222;26.460;2022-08-18T04:40:42;96218.91;;;17.22;100.00
47556;BME280;33291;46.222;26.460;2022-08-18T04:43:08;96220.56;;;17.23;100.00
47556;BME280;33291;46.222;26.460;2022-08-18T04:45:43;96203.31;;;17.21;100.00
47556;BME280;33291;46.222;26.460;2022-08-18T04:48:10;96221.78;;;17.28;100.00
47556;BME280;33291;46.222;26.460;2022-08-18T04:50:37;96214.09;;;17.26;100.00
47556;BME280;33291;46.222;26.460;2022-08-18T04:53:04;96208.44;;;17.29;100.00
47556;BME280;33291;46.222;26.460;2022-08-18T04:55:49;96223.56;;;17.42;100.00
47556;BME280;33291;46.222;26.460;2022-08-18T04:58:17;96220.38;;;17.47;100.00
47556;BME280;33291;46.222;26.460;2022-08-18T05:00:46;96205.31;;;17.40;100.00
47556;BME280;33291;46.222;26.460;2022-08-18T05:03:12;96210.53;;;17.55;100.00
47556;BME280;33291;46.222;26.460;2022-08-18T05:05:38;96217.66;;;17.62;100.00
47556;BME280;33291;46.222;26.460;2022-08-18T05:08:03;96212.00;;;17.65;100.00
47556;BME280;33291;46.222;26.460;2022-08-18T05:10:29;96204.72;;;17.67;100.00
47556;BME280;33291;46.222;26.460;2022-08-18T05:12:55;96218.38;;;17.77;100.00
47556;BME280;33291;46.222;26.460;2022-08-18T05:15:20;96215.97;;;17.82;100.00
47556;BME280;33291;46.222;26.460;2022-08-18T05:17:46;96209.13;;;17.88;100.00
47556;BME280;33291;46.222;26.460;2022-08-18T05:20:12;96212.88;;;17.93;100.00
47556;BME280;33291;46.222;26.460;2022-08-18T05:22:39;96212.50;;;18.03;100.00
47556;BME280;33291;46.222;26.460;2022-08-18T05:25:10;96207.69;;;18.07;100.00
47556;BME280;33291;46.222;26.460;2022-08-18T05:27:38;96211.81;;;18.23;100.00
47556;BME280;33291;46.222;26.460;2022-08-18T05:30:06;96220.41;;;18.32;100.00
47556;BME280;33291;46.222;26.460;2022-08-18T05:32:38;96209.06;;;18.38;100.00
47556;BME280;33291;46.222;26.460;2022-08-18T05:35:10;96213.78;;;18.49;100.00
47556;BME280;33291;46.222;26.460;2022-08-18T05:37:55;96217.47;;;18.55;100.00
47556;BME280;33291;46.222;26.460;2022-08-18T05:40:25;96234.16;;;18.62;100.00
47556;BME280;33291;46.222;26.460;2022-08-18T05:42:53;96232.94;;;18.64;100.00
47556;BME280;33291;46.222;26.460;2022-08-18T05:45:22;96229.69;;;18.62;100.00
47556;BME280;33291;46.222;26.460;2022-08-18T05:47:48;96235.78;;;18.63;100.00
47556;BME280;33291;46.222;26.460;2022-08-18T05:50:17;96243.13;;;18.68;100.00
47556;BME280;33291;46.222;26.460;2022-08-18T05:55:31;96245.34;;;18.71;100.00
47556;BME280;33291;46.222;26.460;2022-08-18T05:58:22;96222.56;;;18.56;100.00
47556;BME280;33291;46.222;26.460;2022-08-18T06:00:55;96236.81;;;18.69;100.00
47556;BME280;33291;46.222;26.460;2022-08-18T06:03:34;96260.00;;;18.80;100.00
47556;BME280;33291;46.222;26.460;2022-08-18T06:06:06;96257.97;;;18.82;100.00
47556;BME280;33291;46.222;26.460;2022-08-18T06:08:39;96259.06;;;18.88;100.00
47556;BME280;33291;46.222;26.460;2022-08-18T06:11:05;96259.47;;;18.91;100.00
47556;BME280;33291;46.222;26.460;2022-08-18T06:13:37;96264.34;;;18.94;100.00
47556;BME280;33291;46.222;26.460;2022-08-18T06:16:06;96261.31;;;18.97;100.00
47556;BME280;33291;46.222;26.460;2022-08-18T06:26:52;96271.72;;;19.12;100.00
47556;BME280;33291;46.222;26.460;2022-08-18T06:40:31;96262.84;;;19.27;100.00
47556;BME280;33291;46.222;26.460;2022-08-18T06:42:56;96271.78;;;19.32;100.00
47556;BME280;33291;46.222;26.460;2022-08-18T06:45:32;96273.41;;;19.33;100.00
47556;BME280;33291;46.222;26.460;2022-08-18T06:50:56;96264.09;;;19.38;100.00
47556;BME280;33291;46.222;26.460;2022-08-18T06:53:21;96268.56;;;19.50;100.00
47556;BME280;33291;46.222;26.460;2022-08-18T06:55:49;96256.75;;;19.46;100.00
47556;BME280;33291;46.222;26.460;2022-08-18T07:00:54;96278.34;;;19.63;100.00
47556;BME280;33291;46.222;26.460;2022-08-18T07:03:23;96269.59;;;19.63;100.00
47556;BME280;33291;46.222;26.460;2022-08-18T07:06:24;96271.44;;;19.69;100.00
47556;BME280;33291;46.222;26.460;2022-08-18T07:08:53;96272.88;;;19.71;100.00
47556;BME280;33291;46.222;26.460;2022-08-18T07:13:55;96273.06;;;19.77;100.00
47556;BME280;33291;46.222;26.460;2022-08-18T07:18:46;96263.34;;;19.77;100.00
47556;BME280;33291;46.222;26.460;2022-08-18T07:21:32;96271.91;;;19.86;100.00
47556;BME280;33291;46.222;26.460;2022-08-18T07:24:03;96275.94;;;19.88;100.00
47556;BME280;33291;46.222;26.460;2022-08-18T07:27:04;96272.69;;;19.93;100.00
47556;BME280;33291;46.222;26.460;2022-08-18T07:29:37;96266.19;;;19.96;100.00
47556;BME280;33291;46.222;26.460;2022-08-18T07:32:20;96268.63;;;20.04;100.00
47556;BME280;33291;46.222;26.460;2022-08-18T07:34:50;96273.91;;;20.11;100.00
47556;BME280;33291;46.222;26.460;2022-08-18T07:42:59;96257.59;;;20.40;100.00
47556;BME280;33291;46.222;26.460;2022-08-18T07:45:39;96255.97;;;20.53;100.00
47556;BME280;33291;46.222;26.460;2022-08-18T07:48:13;96264.91;;;20.65;100.00
47556;BME280;33291;46.222;26.460;2022-08-18T07:53:27;96263.56;;;20.94;98.13
47556;BME280;33291;46.222;26.460;2022-08-18T07:56:05;96257.59;;;21.12;96.26
47556;BME280;33291;46.222;26.460;2022-08-18T07:58:39;96245.72;;;21.22;94.83
47556;BME280;33291;46.222;26.460;2022-08-18T08:01:20;96257.63;;;21.44;93.87
47556;BME280;33291;46.222;26.460;2022-08-18T08:06:58;96246.00;;;21.77;90.93
47556;BME280;33291;46.222;26.460;2022-08-18T08:09:55;96253.63;;;21.92;88.96
47556;BME280;33291;46.222;26.460;2022-08-18T08:12:35;96257.69;;;21.95;86.57
47556;BME280;33291;46.222;26.460;2022-08-18T08:20:44;96263.44;;;21.92;87.15
47556;BME280;33291;46.222;26.460;2022-08-18T08:31:39;96266.66;;;21.94;90.10
47556;BME280;33291;46.222;26.460;2022-08-18T08:34:16;96262.78;;;21.96;88.75
47556;BME280;33291;46.222;26.460;2022-08-18T08:36:45;96257.25;;;21.98;88.69
47556;BME280;33291;46.222;26.460;2022-08-18T08:39:23;96267.22;;;22.03;88.94
47556;BME280;33291;46.222;26.460;2022-08-18T08:41:54;96260.09;;;22.03;88.59
47556;BME280;33291;46.222;26.460;2022-08-18T08:44:47;96262.66;;;22.10;86.49
47556;BME280;33291;46.222;26.460;2022-08-18T08:47:29;96262.66;;;22.10;85.23
47556;BME280;33291;46.222;26.460;2022-08-18T08:50:14;96242.75;;;22.00;85.14
47556;BME280;33291;46.222;26.460;2022-08-18T08:52:56;96258.38;;;22.09;85.75
47556;BME280;33291;46.222;26.460;2022-08-18T08:55:28;96254.34;;;22.06;86.66
47556;BME280;33291;46.222;26.460;2022-08-18T08:58:01;96252.34;;;22.02;88.22
47556;BME280;33291;46.222;26.460;2022-08-18T09:00:32;96255.41;;;21.98;89.19
47556;BME280;33291;46.222;26.460;2022-08-18T09:05:54;96258.13;;;21.92;91.04
47556;BME280;33291;46.222;26.460;2022-08-18T09:08:59;96258.13;;;21.92;91.57
47556;BME280;33291;46.222;26.460;2022-08-18T09:17:51;96250.81;;;22.12;88.23
47556;BME280;33291;46.222;26.460;2022-08-18T09:23:19;96256.06;;;22.44;81.78
47556;BME280;33291;46.222;26.460;2022-08-18T09:25:51;96227.00;;;22.49;76.96
47556;BME280;33291;46.222;26.460;2022-08-18T09:28:53;96234.91;;;22.75;75.18
47556;BME280;33291;46.222;26.460;2022-08-18T09:31:21;96235.66;;;22.94;74.23
47556;BME280;33291;46.222;26.460;2022-08-18T09:47:12;96229.09;;;23.15;74.87
47556;BME280;33291;46.222;26.460;2022-08-18T09:58:47;96232.84;;;23.68;69.50
47556;BME280;33291;46.222;26.460;2022-08-18T10:01:36;96225.69;;;23.80;67.88
47556;BME280;33291;46.222;26.460;2022-08-18T10:06:43;96234.50;;;23.92;67.81
47556;BME280;33291;46.222;26.460;2022-08-18T10:09:17;96232.91;;;23.91;66.67
47556;BME280;33291;46.222;26.460;2022-08-18T10:14:54;96239.56;;;23.82;69.43
47556;BME280;33291;46.222;26.460;2022-08-18T10:22:40;96241.91;;;23.90;68.89
47556;BME280;33291;46.222;26.460;2022-08-18T10:25:09;96240.28;;;23.89;70.66
47556;BME280;33291;46.222;26.460;2022-08-18T10:32:55;96258.06;;;23.77;67.01
47556;BME280;33291;46.222;26.460;2022-08-18T10:38:02;96239.06;;;23.62;65.59
47556;BME280;33291;46.222;26.460;2022-08-18T10:40:31;96245.28;;;23.55;65.58
47556;BME280;33291;46.222;26.460;2022-08-18T10:43:08;96249.09;;;23.48;66.36
47556;BME280;33291;46.222;26.460;2022-08-18T10:45:48;96259.50;;;23.49;68.63
47556;BME280;33291;46.222;26.460;2022-08-18T10:48:28;96247.91;;;23.44;67.26
47556;BME280;33291;46.222;26.460;2022-08-18T11:04:44;96234.06;;;23.95;63.01
47556;BME280;33291;46.222;26.460;2022-08-18T11:09:42;96236.38;;;23.92;63.86
47556;BME280;33291;46.222;26.460;2022-08-18T11:12:11;96244.22;;;23.99;61.22
47556;BME280;33291;46.222;26.460;2022-08-18T11:15:00;96248.41;;;23.94;61.94
47556;BME280;33291;46.222;26.460;2022-08-18T11:20:05;96234.63;;;24.09;61.33
47556;BME280;33291;46.222;26.460;2022-08-18T11:22:34;96232.69;;;24.28;61.51
47556;BME280;33291;46.222;26.460;2022-08-18T11:25:01;96245.63;;;24.37;62.15
47556;BME280;33291;46.222;26.460;2022-08-18T11:27:31;96235.19;;;24.47;58.65
47556;BME280;33291;46.222;26.460;2022-08-18T11:30:00;96229.19;;;24.63;58.97
47556;BME280;33291;46.222;26.460;2022-08-18T11:35:00;96221.09;;;24.46;59.05
47556;BME280;33291;46.222;26.460;2022-08-18T11:37:46;96238.56;;;24.42;60.43
47556;BME280;33291;46.222;26.460;2022-08-18T11:42:52;96224.31;;;24.48;60.01
47556;BME280;33291;46.222;26.460;2022-08-18T11:45:21;96221.91;;;24.59;60.30
47556;BME280;33291;46.222;26.460;2022-08-18T11:50:30;96223.47;;;24.83;59.10
47556;BME280;33291;46.222;26.460;2022-08-18T12:12:13;96183.41;;;25.36;56.13
47556;BME280;33291;46.222;26.460;2022-08-18T12:17:28;96173.25;;;25.50;56.20
47556;BME280;33291;46.222;26.460;2022-08-18T12:19:54;96177.44;;;25.63;55.09
47556;BME280;33291;46.222;26.460;2022-08-18T12:22:27;96181.81;;;25.69;55.33
47556;BME280;33291;46.222;26.460;2022-08-18T12:24:53;96183.78;;;25.74;55.22
47556;BME280;33291;46.222;26.460;2022-08-18T12:27:21;96160.09;;;25.60;53.99
47556;BME280;33291;46.222;26.460;2022-08-18T12:29:51;96187.06;;;25.81;55.49
47556;BME280;33291;46.222;26.460;2022-08-18T12:32:19;96183.84;;;25.79;54.62
47556;BME280;33291;46.222;26.460;2022-08-18T12:34:46;96192.31;;;25.76;55.43
47556;BME280;33291;46.222;26.460;2022-08-18T12:37:15;96191.53;;;25.75;55.64
47556;BME280;33291;46.222;26.460;2022-08-18T12:39:41;96187.25;;;25.74;56.77
47556;BME280;33291;46.222;26.460;2022-08-18T12:42:07;96181.19;;;25.62;57.13
47556;BME280;33291;46.222;26.460;2022-08-18T12:44:33;96182.78;;;25.63;58.66
47556;BME280;33291;46.222;26.460;2022-08-18T12:47:06;96194.16;;;25.58;57.63
47556;BME280;33291;46.222;26.460;2022-08-18T12:49:34;96191.19;;;25.54;58.63
47556;BME280;33291;46.222;26.460;2022-08-18T12:52:00;96175.44;;;25.53;58.32
47556;BME280;33291;46.222;26.460;2022-08-18T12:54:25;96180.59;;;25.60;57.36
47556;BME280;33291;46.222;26.460;2022-08-18T12:56:54;96175.25;;;25.60;57.24
47556;BME280;33291;46.222;26.460;2022-08-18T12:59:20;96176.41;;;25.64;57.35
47556;BME280;33291;46.222;26.460;2022-08-18T13:01:45;96180.03;;;25.75;57.15
47556;BME280;33291;46.222;26.460;2022-08-18T13:04:11;96174.16;;;25.73;55.45
47556;BME280;33291;46.222;26.460;2022-08-18T13:06:39;96166.63;;;25.69;56.53
47556;BME280;33291;46.222;26.460;2022-08-18T13:09:08;96173.41;;;25.77;58.17
47556;BME280;33291;46.222;26.460;2022-08-18T13:11:34;96157.56;;;25.70;58.28
47556;BME280;33291;46.222;26.460;2022-08-18T13:13:59;96175.03;;;25.95;58.06
47556;BME280;33291;46.222;26.460;2022-08-18T13:16:26;96169.03;;;26.05;56.11
47556;BME280;33291;46.222;26.460;2022-08-18T13:18:52;96168.88;;;26.12;55.35
47556;BME280;33291;46.222;26.460;2022-08-18T13:21:18;96173.22;;;26.18;55.81
47556;BME280;33291;46.222;26.460;2022-08-18T13:23:44;96170.44;;;26.30;55.36
47556;BME280;33291;46.222;26.460;2022-08-18T13:26:25;96176.16;;;26.38;55.72
47556;BME280;33291;46.222;26.460;2022-08-18T13:28:51;96178.56;;;26.40;55.01
47556;BME280;33291;46.222;26.460;2022-08-18T13:31:17;96182.63;;;26.42;54.64
47556;BME280;33291;46.222;26.460;2022-08-18T13:33:42;96185.94;;;26.50;54.59
47556;BME280;33291;46.222;26.460;2022-08-18T13:36:08;96153.25;;;26.42;54.35
47556;BME280;33291;46.222;26.460;2022-08-18T13:38:34;96168.34;;;26.54;54.00
47556;BME280;33291;46.222;26.460;2022-08-18T13:41:01;96170.50;;;26.57;53.73
47556;BME280;33291;46.222;26.460;2022-08-18T13:43:40;96170.59;;;26.62;53.13
47556;BME280;33291;46.222;26.460;2022-08-18T13:46:09;96164.66;;;26.60;54.24
47556;BME280;33291;46.222;26.460;2022-08-18T13:48:35;96165.91;;;26.69;54.18
47556;BME280;33291;46.222;26.460;2022-08-18T13:51:03;96155.75;;;26.71;53.33
47556;BME280;33291;46.222;26.460;2022-08-18T13:53:29;96160.91;;;26.78;53.62
47556;BME280;33291;46.222;26.460;2022-08-18T13:55:56;96164.31;;;26.73;54.49
47556;BME280;33291;46.222;26.460;2022-08-18T13:58:25;96164.94;;;26.81;54.45
47556;BME280;33291;46.222;26.460;2022-08-18T14:00:55;96166.00;;;26.80;52.84
47556;BME280;33291;46.222;26.460;2022-08-18T14:03:21;96163.31;;;26.80;53.20
47556;BME280;33291;46.222;26.460;2022-08-18T14:05:49;96163.44;;;26.90;53.42
47556;BME280;33291;46.222;26.460;2022-08-18T14:08:15;96170.91;;;26.88;52.52
47556;BME280;33291;46.222;26.460;2022-08-18T14:10:40;96166.06;;;26.85;52.80
47556;BME280;33291;46.222;26.460;2022-08-18T14:13:06;96164.44;;;26.84;53.33
47556;BME280;33291;46.222;26.460;2022-08-18T14:15:33;96169.03;;;26.88;53.88
47556;BME280;33291;46.222;26.460;2022-08-18T14:18:03;96158.03;;;26.85;53.43
47556;BME280;33291;46.222;26.460;2022-08-18T14:20:29;96169.41;;;26.97;53.43
47556;BME280;33291;46.222;26.460;2022-08-18T14:23:13;96180.13;;;27.02;53.74
47556;BME280;33291;46.222;26.460;2022-08-18T14:25:57;96166.31;;;27.10;54.38
47556;BME280;33291;46.222;26.460;2022-08-18T14:28:41;96171.47;;;27.17;53.92
47556;BME280;33291;46.222;26.460;2022-08-18T14:31:08;96173.84;;;27.13;52.61
47556;BME280;33291;46.222;26.460;2022-08-18T14:33:33;96179.69;;;27.10;53.22
47556;BME280;33291;46.222;26.460;2022-08-18T14:36:02;96157.09;;;26.96;53.75
47556;BME280;33291;46.222;26.460;2022-08-18T14:38:28;96161.91;;;26.99;54.70
47556;BME280;33291;46.222;26.460;2022-08-18T14:40:53;96189.31;;;27.11;55.81
47556;BME280;33291;46.222;26.460;2022-08-18T14:43:20;96186.97;;;27.15;57.75
47556;BME280;33291;46.222;26.460;2022-08-18T14:45:47;96194.22;;;27.20;55.46
47556;BME280;33291;46.222;26.460;2022-08-18T14:48:18;96193.91;;;27.16;53.81
47556;BME280;33291;46.222;26.460;2022-08-18T14:50:50;96194.75;;;27.22;55.22
47556;BME280;33291;46.222;26.460;2022-08-18T14:53:18;96197.25;;;27.28;55.97
47556;BME280;33291;46.222;26.460;2022-08-18T14:55:46;96188.97;;;27.30;56.42
47556;BME280;33291;46.222;26.460;2022-08-18T14:58:12;96188.28;;;27.40;57.17
47556;BME280;33291;46.222;26.460;2022-08-18T15:00:38;96185.56;;;27.35;55.86
47556;BME280;33291;46.222;26.460;2022-08-18T15:03:03;96181.03;;;27.35;55.56
47556;BME280;33291;46.222;26.460;2022-08-18T15:05:31;96182.94;;;27.40;56.80
47556;BME280;33291;46.222;26.460;2022-08-18T15:07:58;96166.50;;;27.31;58.01
47556;BME280;33291;46.222;26.460;2022-08-18T15:10:24;96182.31;;;27.33;57.62
47556;BME280;33291;46.222;26.460;2022-08-18T15:12:50;96194.66;;;27.34;58.46
47556;BME280;33291;46.222;26.460;2022-08-18T15:15:17;96192.09;;;27.22;57.36
47556;BME280;33291;46.222;26.460;2022-08-18T15:17:42;96194.16;;;27.15;58.47
47556;BME280;33291;46.222;26.460;2022-08-18T15:20:09;96187.66;;;27.05;59.67
47556;BME280;33291;46.222;26.460;2022-08-18T15:22:40;96191.81;;;26.96;60.79
47556;BME280;33291;46.222;26.460;2022-08-18T15:25:24;96198.88;;;26.80;60.26
47556;BME280;33291;46.222;26.460;2022-08-18T15:28:08;96200.63;;;26.69;61.07
47556;BME280;33291;46.222;26.460;2022-08-18T15:30:34;96205.31;;;26.62;62.56
47556;BME280;33291;46.222;26.460;2022-08-18T15:33:03;96207.28;;;26.50;62.32
47556;BME280;33291;46.222;26.460;2022-08-18T15:35:29;96207.94;;;26.40;61.77
47556;BME280;33291;46.222;26.460;2022-08-18T15:37:54;96207.00;;;26.29;62.63
47556;BME280;33291;46.222;26.460;2022-08-18T15:40:27;96202.34;;;26.19;62.97
47556;BME280;33291;46.222;26.460;2022-08-18T15:42:55;96202.19;;;26.09;62.50